sensor_id;sensor_type;location;lat;lon;timestamp;pressure;altitude;pressure_sealevel;temperature;humidity
71195;BME280;58908;51.426;7.714;2023-07-20T00:02:02;99587.94;;;14.57;100.00
71195;BME280;58908;51.426;7.714;2023-07-20T00:04:30;99581.78;;;14.56;100.00
71195;BME280;58908;51.426;7.714;2023-07-20T00:06:56;99586.63;;;14.62;100.00
71195;BME280;58908;51.426;7.714;2023-07-20T00:09:23;99585.69;;;14.63;100.00
71195;BME280;58908;51.426;7.714;2023-07-20T00:11:51;99590.03;;;14.64;100.00
71195;BME280;58908;51.426;7.714;2023-07-20T00:14:17;99586.75;;;14.61;100.00
71195;BME280;58908;51.426;7.714;2023-07-20T00:16:44;99590.25;;;14.61;100.00
71195;BME280;58908;51.426;7.714;2023-07-20T00:19:11;99587.81;;;14.58;100.00
71195;BME280;58908;51.426;7.714;2023-07-20T00:21:37;99586.50;;;14.64;100.00
71195;BME280;58908;51.426;7.714;2023-07-20T00:24:05;99582.78;;;14.66;100.00
71195;BME280;58908;51.426;7.714;2023-07-20T00:26:32;99593.41;;;14.66;100.00
71195;BME280;58908;51.426;7.714;2023-07-20T00:28:59;99582.53;;;14.69;100.00
71195;BME280;58908;51.426;7.714;2023-07-20T00:31:25;99582.19;;;14.74;100.00
71195;BME280;58908;51.426;7.714;2023-07-20T00:33:52;99576.78;;;14.75;100.00
71195;BME280;58908;51.426;7.714;2023-07-20T00:36:18;99584.50;;;14.78;100.00
71195;BME280;58908;51.426;7.714;2023-07-20T00:38:44;99580.25;;;14.76;100.00
71195;BME280;58908;51.426;7.714;2023-07-20T00:41:10;99573.97;;;14.77;100.00
71195;BME280;58908;51.426;7.714;2023-07-20T00:43:38;99581.56;;;14.70;100.00
71195;BME280;58908;51.426;7.714;2023-07-20T00:46:06;99584.56;;;14.66;100.00
71195;BME280;58908;51.426;7.714;2023-07-20T00:48:32;99579.84;;;14.58;100.00
71195;BME280;58908;51.426;7.714;2023-07-20T00:50:58;99577.19;;;14.58;100.00
71195;BME280;58908;51.426;7.714;2023-07-20T00:53:26;99572.59;;;14.60;100.00
71195;BME280;58908;51.426;7.714;2023-07-20T00:55:52;99565.25;;;14.64;100.00
71195;BME280;58908;51.426;7.714;2023-07-20T00:58:18;99577.13;;;14.71;100.00
71195;BME280;58908;51.426;7.714;2023-07-20T01:00:45;99579.53;;;14.74;100.00
71195;BME280;58908;51.426;7.714;2023-07-20T01:03:13;99578.34;;;14.78;100.00
71195;BME280;58908;51.426;7.714;2023-07-20T01:05:42;99575.69;;;14.78;100.00
71195;BME280;58908;51.426;7.714;2023-07-20T01:08:11;99573.59;;;14.70;100.00
71195;BME280;58908;51.426;7.714;2023-07-20T01:10:40;99570.13;;;14.70;100.00
71195;BME280;58908;51.426;7.714;2023-07-20T01:13:07;99571.44;;;14.64;100.00
71195;BME280;58908;51.426;7.714;2023-07-20T01:15:35;99563.94;;;14.58;100.00
71195;BME280;58908;51.426;7.714;2023-07-20T01:18:02;99573.84;;;14.67;100.00
71195;BME280;58908;51.426;7.714;2023-07-20T01:20:31;99568.44;;;14.69;100.00
71195;BME280;58908;51.426;7.714;2023-07-20T01:23:09;99572.88;;;14.68;100.00
71195;BME280;58908;51.426;7.714;2023-07-20T01:25:52;99577.13;;;14.71;100.00
71195;BME280;58908;51.426;7.714;2023-07-20T01:28:35;99568.19;;;14.72;100.00
71195;BME280;58908;51.426;7.714;2023-07-20T01:31:16;99570.72;;;14.73;100.00
71195;BME280;58908;51.426;7.714;2023-07-20T01:33:42;99575.28;;;14.71;100.00
71195;BME280;58908;51.426;7.714;2023-07-20T01:36:10;99566.75;;;14.68;100.00
71195;BME280;58908;51.426;7.714;2023-07-20T01:38:36;99568.19;;;14.72;100.00
71195;BME280;58908;51.426;7.714;2023-07-20T01:41:03;99559.38;;;14.71;100.00
71195;BME280;58908;51.426;7.714;2023-07-20T01:43:29;99566.41;;;14.72;100.00
71195;BME280;58908;51.426;7.714;2023-07-20T01:45:56;99568.19;;;14.72;100.00
71195;BME280;58908;51.426;7.714;2023-07-20T01:48:23;99565.63;;;14.70;100.00
71195;BME280;58908;51.426;7.714;2023-07-20T01:50:50;99568.09;;;14.73;100.00
71195;BME280;58908;51.426;7.714;2023-07-20T01:53:16;99568.81;;;14.75;100.00
71195;BME280;58908;51.426;7.714;2023-07-20T01:55:43;99560.50;;;14.80;100.00
71195;BME280;58908;51.426;7.714;2023-07-20T01:58:09;99561.22;;;14.82;100.00
71195;BME280;58908;51.426;7.714;2023-07-20T02:00:36;99564.59;;;14.84;100.00
71195;BME280;58908;51.426;7.714;2023-07-20T02:03:03;99562.16;;;14.81;100.00
71195;BME280;58908;51.426;7.714;2023-07-20T02:05:31;99560.94;;;14.74;100.00
71195;BME280;58908;51.426;7.714;2023-07-20T02:07:57;99554.28;;;14.68;100.00
71195;BME280;58908;51.426;7.714;2023-07-20T02:10:23;99550.78;;;14.57;100.00
71195;BME280;58908;51.426;7.714;2023-07-20T02:12:50;99547.38;;;14.55;100.00
71195;BME280;58908;51.426;7.714;2023-07-20T02:15:16;99551.34;;;14.49;100.00
71195;BME280;58908;51.426;7.714;2023-07-20T02:17:43;99546.91;;;14.50;100.00
71195;BME280;58908;51.426;7.714;2023-07-20T02:20:10;99550.16;;;14.53;100.00
71195;BME280;58908;51.426;7.714;2023-07-20T02:22:38;99548.97;;;14.57;100.00
71195;BME280;58908;51.426;7.714;2023-07-20T02:25:05;99553.19;;;14.60;100.00
71195;BME280;58908;51.426;7.714;2023-07-20T02:27:33;99543.31;;;14.62;100.00
71195;BME280;58908;51.426;7.714;2023-07-20T02:30:00;99545.84;;;14.63;100.00
71195;BME280;58908;51.426;7.714;2023-07-20T02:32:26;99538.09;;;14.60;100.00
71195;BME280;58908;51.426;7.714;2023-07-20T02:34:52;99535.31;;;14.51;100.00
71195;BME280;58908;51.426;7.714;2023-07-20T02:37:18;99542.06;;;14.44;100.00
71195;BME280;58908;51.426;7.714;2023-07-20T02:39:46;99542.41;;;14.40;100.00
71195;BME280;58908;51.426;7.714;2023-07-20T02:42:12;99545.66;;;14.43;100.00
71195;BME280;58908;51.426;7.714;2023-07-20T02:44:39;99546.41;;;14.45;100.00
71195;BME280;58908;51.426;7.714;2023-07-20T02:47:05;99540.63;;;14.51;100.00
71195;BME280;58908;51.426;7.714;2023-07-20T02:49:32;99540.53;;;14.52;100.00
71195;BME280;58908;51.426;7.714;2023-07-20T02:51:58;99540.53;;;14.52;100.00
71195;BME280;58908;51.426;7.714;2023-07-20T02:54:24;99534.34;;;14.52;100.00
71195;BME280;58908;51.426;7.714;2023-07-20T02:56:52;99536.66;;;14.56;100.00
71195;BME280;58908;51.426;7.714;2023-07-20T02:59:18;99544.50;;;14.58;100.00
71195;BME280;58908;51.426;7.714;2023-07-20T03:01:45;99545.34;;;14.58;100.00
71195;BME280;58908;51.426;7.714;2023-07-20T03:04:11;99540.91;;;14.59;100.00
71195;BME280;58908;51.426;7.714;2023-07-20T03:06:37;99544.28;;;14.61;100.00
71195;BME280;58908;51.426;7.714;2023-07-20T03:09:03;99545.59;;;14.66;100.00
71195;BME280;58908;51.426;7.714;2023-07-20T03:11:31;99551.03;;;14.65;100.00
71195;BME280;58908;51.426;7.714;2023-07-20T03:13:59;99553.81;;;14.63;100.00
71195;BME280;58908;51.426;7.714;2023-07-20T03:16:25;99556.56;;;14.62;100.00
71195;BME280;58908;51.426;7.714;2023-07-20T03:18:52;99560.56;;;14.67;100.00
71195;BME280;58908;51.426;7.714;2023-07-20T03:21:18;99562.97;;;14.70;100.00
71195;BME280;58908;51.426;7.714;2023-07-20T03:23:44;99563.84;;;14.71;100.00
71195;BME280;58908;51.426;7.714;2023-07-20T03:26:11;99567.13;;;14.74;100.00
71195;BME280;58908;51.426;7.714;2023-07-20T03:28:37;99569.03;;;14.72;100.00
71195;BME280;58908;51.426;7.714;2023-07-20T03:31:05;99571.56;;;14.74;100.00
71195;BME280;58908;51.426;7.714;2023-07-20T03:33:31;99573.50;;;14.72;100.00
71195;BME280;58908;51.426;7.714;2023-07-20T03:35:58;99576.41;;;14.69;100.00
71195;BME280;58908;51.426;7.714;2023-07-20T03:38:25;99571.28;;;14.66;100.00
71195;BME280;58908;51.426;7.714;2023-07-20T03:40:52;99575.25;;;14.60;100.00
71195;BME280;58908;51.426;7.714;2023-07-20T03:43:18;99578.88;;;14.59;100.00
71195;BME280;58908;51.426;7.714;2023-07-20T03:45:45;99571.28;;;14.66;100.00
71195;BME280;58908;51.426;7.714;2023-07-20T03:48:14;99580.47;;;14.62;100.00
71195;BME280;58908;51.426;7.714;2023-07-20T03:50:41;99587.38;;;14.64;100.00
71195;BME280;58908;51.426;7.714;2023-07-20T03:53:07;99592.06;;;14.61;100.00
71195;BME280;58908;51.426;7.714;2023-07-20T03:55:33;99585.69;;;14.63;100.00
71195;BME280;58908;51.426;7.714;2023-07-20T03:58:00;99585.88;;;14.60;100.00
71195;BME280;58908;51.426;7.714;2023-07-20T04:00:27;99582.88;;;14.65;100.00
71195;BME280;58908;51.426;7.714;2023-07-20T04:02:53;99581.69;;;14.58;100.00
71195;BME280;58908;51.426;7.714;2023-07-20T04:05:20;99580.19;;;14.54;100.00
71195;BME280;58908;51.426;7.714;2023-07-20T04:07:47;99581.78;;;14.56;100.00
71195;BME280;58908;51.426;7.714;2023-07-20T04:10:13;99579.22;;;14.55;100.00
71195;BME280;58908;51.426;7.714;2023-07-20T04:12:39;99594.56;;;14.51;100.00
71195;BME280;58908;51.426;7.714;2023-07-20T04:15:06;99592.38;;;14.45;100.00
71195;BME280;58908;51.426;7.714;2023-07-20T04:17:32;99595.63;;;14.49;100.00
71195;BME280;58908;51.426;7.714;2023-07-20T04:19:58;99597.22;;;14.51;100.00
71195;BME280;58908;51.426;7.714;2023-07-20T04:22:26;99595.16;;;14.55;100.00
71195;BME280;58908;51.426;7.714;2023-07-20T04:24:53;99596.59;;;14.48;100.00
71195;BME280;58908;51.426;7.714;2023-07-20T04:27:19;99589.22;;;14.41;100.00
71195;BME280;58908;51.426;7.714;2023-07-20T04:29:45;99588.03;;;14.44;100.00
71195;BME280;58908;51.426;7.714;2023-07-20T04:32:11;99591.88;;;14.41;100.00
71195;BME280;58908;51.426;7.714;2023-07-20T04:34:38;99593.06;;;14.37;100.00
71195;BME280;58908;51.426;7.714;2023-07-20T04:37:04;99598.16;;;14.40;100.00
71195;BME280;58908;51.426;7.714;2023-07-20T04:39:32;99595.16;;;14.44;100.00
71195;BME280;58908;51.426;7.714;2023-07-20T04:41:58;99602.53;;;14.51;100.00
71195;BME280;58908;51.426;7.714;2023-07-20T04:44:24;99605.78;;;14.55;100.00
71195;BME280;58908;51.426;7.714;2023-07-20T04:46:51;99609.06;;;14.58;100.00
71195;BME280;58908;51.426;7.714;2023-07-20T04:49:17;99599.31;;;14.70;100.00
71195;BME280;58908;51.426;7.714;2023-07-20T04:51:43;99603.78;;;14.69;100.00
71195;BME280;58908;51.426;7.714;2023-07-20T04:54:09;99602.84;;;14.81;100.00
71195;BME280;58908;51.426;7.714;2023-07-20T04:56:37;99612.72;;;14.79;100.00
71195;BME280;58908;51.426;7.714;2023-07-20T04:59:03;99601.03;;;14.82;100.00
71195;BME280;58908;51.426;7.714;2023-07-20T05:01:30;99599.34;;;14.81;100.00
71195;BME280;58908;51.426;7.714;2023-07-20T05:03:56;99604.78;;;14.90;100.00
71195;BME280;58908;51.426;7.714;2023-07-20T05:06:22;99604.06;;;14.88;100.00
71195;BME280;58908;51.426;7.714;2023-07-20T05:08:48;99597.53;;;14.92;100.00
71195;BME280;58908;51.426;7.714;2023-07-20T05:11:14;99596.81;;;14.90;100.00
71195;BME280;58908;51.426;7.714;2023-07-20T05:13:42;99608.78;;;14.96;100.00
71195;BME280;58908;51.426;7.714;2023-07-20T05:16:08;99613.28;;;14.95;100.00
71195;BME280;58908;51.426;7.714;2023-07-20T05:18:35;99602.94;;;14.69;100.00
71195;BME280;58908;51.426;7.714;2023-07-20T05:21:01;99601.84;;;14.71;100.00
71195;BME280;58908;51.426;7.714;2023-07-20T05:23:27;99620.81;;;14.67;100.00
71195;BME280;58908;51.426;7.714;2023-07-20T05:25:54;99623.66;;;14.64;100.00
71195;BME280;58908;51.426;7.714;2023-07-20T05:28:21;99620.41;;;14.60;100.00
71195;BME280;58908;51.426;7.714;2023-07-20T05:30:49;99626.81;;;14.58;100.00
71195;BME280;58908;51.426;7.714;2023-07-20T05:33:16;99631.44;;;14.67;100.00
71195;BME280;58908;51.426;7.714;2023-07-20T05:35:42;99629.59;;;14.67;100.00
71195;BME280;58908;51.426;7.714;2023-07-20T05:38:09;99627.09;;;14.77;100.00
71195;BME280;58908;51.426;7.714;2023-07-20T05:40:36;99638.28;;;14.69;100.00
71195;BME280;58908;51.426;7.714;2023-07-20T05:43:03;99629.53;;;14.80;100.00
71195;BME280;58908;51.426;7.714;2023-07-20T05:45:29;99633.63;;;14.84;100.00
71195;BME280;58908;51.426;7.714;2023-07-20T05:47:57;99639.06;;;14.93;100.00
71195;BME280;58908;51.426;7.714;2023-07-20T05:50:23;99641.31;;;15.10;100.00
71195;BME280;58908;51.426;7.714;2023-07-20T05:52:51;99645.38;;;15.03;100.00
71195;BME280;58908;51.426;7.714;2023-07-20T05:55:18;99653.84;;;14.97;100.00
71195;BME280;58908;51.426;7.714;2023-07-20T05:57:44;99650.09;;;15.00;100.00
71195;BME280;58908;51.426;7.714;2023-07-20T06:00:11;99649.25;;;14.99;100.00
71195;BME280;58908;51.426;7.714;2023-07-20T06:02:38;99652.66;;;15.23;100.00
71195;BME280;58908;51.426;7.714;2023-07-20T06:05:06;99661.25;;;15.27;100.00
71195;BME280;58908;51.426;7.714;2023-07-20T06:07:34;99662.19;;;15.04;100.00
71195;BME280;58908;51.426;7.714;2023-07-20T06:10:00;99661.97;;;15.18;100.00
71195;BME280;58908;51.426;7.714;2023-07-20T06:12:27;99661.47;;;15.13;100.00
71195;BME280;58908;51.426;7.714;2023-07-20T06:14:53;99665.94;;;15.12;100.00
71195;BME280;58908;51.426;7.714;2023-07-20T06:17:20;99667.88;;;15.10;100.00
71195;BME280;58908;51.426;7.714;2023-07-20T06:19:46;99671.50;;;15.20;100.00
71195;BME280;58908;51.426;7.714;2023-07-20T06:22:14;99669.81;;;15.19;100.00
71195;BME280;58908;51.426;7.714;2023-07-20T06:24:40;99677.19;;;15.27;100.00
71195;BME280;58908;51.426;7.714;2023-07-20T06:27:07;99671.13;;;15.14;100.00
71195;BME280;58908;51.426;7.714;2023-07-20T06:29:33;99684.78;;;15.09;100.00
71195;BME280;58908;51.426;7.714;2023-07-20T06:31:59;99689.13;;;15.10;100.00
71195;BME280;58908;51.426;7.714;2023-07-20T06:34:25;99684.41;;;15.03;100.00
71195;BME280;58908;51.426;7.714;2023-07-20T06:36:52;99679.47;;;15.09;100.00
71195;BME280;58908;51.426;7.714;2023-07-20T06:39:19;99686.50;;;15.21;100.00
71195;BME280;58908;51.426;7.714;2023-07-20T06:41:46;99682.44;;;15.39;100.00
71195;BME280;58908;51.426;7.714;2023-07-20T06:44:13;99689.94;;;15.56;100.00
71195;BME280;58908;51.426;7.714;2023-07-20T06:46:39;99683.41;;;15.60;100.00
71195;BME280;58908;51.426;7.714;2023-07-20T06:49:05;99692.34;;;15.59;100.00
71195;BME280;58908;51.426;7.714;2023-07-20T06:51:32;99682.47;;;15.61;100.00
71195;BME280;58908;51.426;7.714;2023-07-20T06:53:58;99682.22;;;15.86;100.00
71195;BME280;58908;51.426;7.714;2023-07-20T06:56:25;99674.25;;;15.75;100.00
71195;BME280;58908;51.426;7.714;2023-07-20T06:58:52;99670.97;;;15.83;100.00
71195;BME280;58908;51.426;7.714;2023-07-20T07:01:18;99671.84;;;15.61;100.00
71195;BME280;58908;51.426;7.714;2023-07-20T07:03:46;99677.00;;;15.74;100.00
71195;BME280;58908;51.426;7.714;2023-07-20T07:06:12;99679.41;;;15.88;100.00
71195;BME280;58908;51.426;7.714;2023-07-20T07:08:38;99676.38;;;15.92;100.00
71195;BME280;58908;51.426;7.714;2023-07-20T07:11:04;99681.66;;;16.14;100.00
71195;BME280;58908;51.426;7.714;2023-07-20T07:13:32;99676.06;;;17.43;100.00
71195;BME280;58908;51.426;7.714;2023-07-20T07:15:58;99667.00;;;16.93;100.00
71195;BME280;58908;51.426;7.714;2023-07-20T07:18:25;99668.53;;;17.07;100.00
71195;BME280;58908;51.426;7.714;2023-07-20T07:20:51;99664.00;;;16.67;100.00
71195;BME280;58908;51.426;7.714;2023-07-20T07:23:18;99671.41;;;17.04;100.00
71195;BME280;58908;51.426;7.714;2023-07-20T07:25:44;99651.25;;;18.40;100.00
71195;BME280;58908;51.426;7.714;2023-07-20T07:28:11;99648.59;;;18.97;100.00
71195;BME280;58908;51.426;7.714;2023-07-20T07:30:38;99637.91;;;18.88;100.00
71195;BME280;58908;51.426;7.714;2023-07-20T07:33:04;99655.63;;;18.32;100.00
71195;BME280;58908;51.426;7.714;2023-07-20T07:35:31;99628.69;;;19.74;100.00
71195;BME280;58908;51.426;7.714;2023-07-20T07:37:57;99640.56;;;19.07;100.00
71195;BME280;58908;51.426;7.714;2023-07-20T07:40:24;99667.78;;;18.06;100.00
71195;BME280;58908;51.426;7.714;2023-07-20T07:42:50;99672.22;;;18.54;100.00
71195;BME280;58908;51.426;7.714;2023-07-20T07:45:16;99647.31;;;20.29;100.00
71195;BME280;58908;51.426;7.714;2023-07-20T07:47:44;99640.94;;;19.40;100.00
71195;BME280;58908;51.426;7.714;2023-07-20T07:50:10;99634.66;;;19.68;100.00
71195;BME280;58908;51.426;7.714;2023-07-20T07:52:36;99647.34;;;18.82;100.00
71195;BME280;58908;51.426;7.714;2023-07-20T07:55:03;99647.47;;;19.19;100.00
71195;BME280;58908;51.426;7.714;2023-07-20T07:57:30;99622.97;;;20.58;100.00
71195;BME280;58908;51.426;7.714;2023-07-20T07:59:56;99623.00;;;19.86;100.00
71195;BME280;58908;51.426;7.714;2023-07-20T08:02:22;99638.50;;;21.58;100.00
71195;BME280;58908;51.426;7.714;2023-07-20T08:04:50;99647.78;;;19.61;100.00
71195;BME280;58908;51.426;7.714;2023-07-20T08:07:17;99670.41;;;18.93;100.00
71195;BME280;58908;51.426;7.714;2023-07-20T08:09:43;99662.94;;;19.25;100.00
71195;BME280;58908;51.426;7.714;2023-07-20T08:12:09;99662.78;;;19.72;100.00
71195;BME280;58908;51.426;7.714;2023-07-20T08:14:36;99627.66;;;20.56;100.00
71195;BME280;58908;51.426;7.714;2023-07-20T08:17:02;99611.94;;;21.21;100.00
71195;BME280;58908;51.426;7.714;2023-07-20T08:19:28;99622.41;;;20.72;100.00
71195;BME280;58908;51.426;7.714;2023-07-20T08:21:56;99633.13;;;21.58;100.00
71195;BME280;58908;51.426;7.714;2023-07-20T08:24:22;99637.72;;;20.97;100.00
71195;BME280;58908;51.426;7.714;2023-07-20T08:26:48;99600.13;;;22.07;97.64
71195;BME280;58908;51.426;7.714;2023-07-20T08:29:15;99592.91;;;22.07;92.97
71195;BME280;58908;51.426;7.714;2023-07-20T08:31:41;99593.97;;;22.30;94.24
71195;BME280;58908;51.426;7.714;2023-07-20T08:34:08;99556.72;;;22.91;85.57
71195;BME280;58908;51.426;7.714;2023-07-20T08:36:34;99594.69;;;21.57;87.18
71195;BME280;58908;51.426;7.714;2023-07-20T08:39:02;99659.69;;;19.21;100.00
71195;BME280;58908;51.426;7.714;2023-07-20T08:41:29;99702.75;;;18.71;100.00
71195;BME280;58908;51.426;7.714;2023-07-20T08:43:56;99693.63;;;17.45;100.00
71195;BME280;58908;51.426;7.714;2023-07-20T08:46:23;99709.16;;;16.99;100.00
71195;BME280;58908;51.426;7.714;2023-07-20T08:48:49;99721.03;;;16.95;100.00
71195;BME280;58908;51.426;7.714;2023-07-20T08:51:16;99725.75;;;17.44;100.00
71195;BME280;58908;51.426;7.714;2023-07-20T08:53:42;99720.78;;;17.60;100.00
71195;BME280;58908;51.426;7.714;2023-07-20T08:56:12;99716.59;;;17.57;100.00
71195;BME280;58908;51.426;7.714;2023-07-20T08:58:41;99715.72;;;17.77;100.00
71195;BME280;58908;51.426;7.714;2023-07-20T09:01:09;99723.13;;;17.74;100.00
71195;BME280;58908;51.426;7.714;2023-07-20T09:03:36;99707.91;;;17.65;100.00
71195;BME280;58908;51.426;7.714;2023-07-20T09:06:04;99712.66;;;17.20;100.00
71195;BME280;58908;51.426;7.714;2023-07-20T09:08:31;99708.50;;;17.27;100.00
71195;BME280;58908;51.426;7.714;2023-07-20T09:10:57;99705.03;;;17.16;100.00
71195;BME280;58908;51.426;7.714;2023-07-20T09:13:25;99702.00;;;17.61;100.00
71195;BME280;58908;51.426;7.714;2023-07-20T09:15:52;99661.66;;;19.74;100.00
71195;BME280;58908;51.426;7.714;2023-07-20T09:18:25;99626.72;;;21.25;100.00
71195;BME280;58908;51.426;7.714;2023-07-20T09:20:51;99605.09;;;21.60;95.76
71195;BME280;58908;51.426;7.714;2023-07-20T09:23:19;99621.53;;;21.83;94.46
71195;BME280;58908;51.426;7.714;2023-07-20T09:25:46;99611.06;;;22.13;92.59
71195;BME280;58908;51.426;7.714;2023-07-20T09:28:15;99592.03;;;22.64;86.95
71195;BME280;58908;51.426;7.714;2023-07-20T09:30:43;99612.09;;;21.71;86.92
71195;BME280;58908;51.426;7.714;2023-07-20T09:33:17;99609.81;;;21.92;88.25
71195;BME280;58908;51.426;7.714;2023-07-20T09:35:44;99628.16;;;20.77;90.17
71195;BME280;58908;51.426;7.714;2023-07-20T09:38:10;99635.22;;;21.46;92.96
71195;BME280;58908;51.426;7.714;2023-07-20T09:40:37;99640.31;;;20.71;93.01
71195;BME280;58908;51.426;7.714;2023-07-20T09:43:04;99603.41;;;21.26;89.06
71195;BME280;58908;51.426;7.714;2023-07-20T09:45:33;99606.97;;;21.34;87.98
71195;BME280;58908;51.426;7.714;2023-07-20T09:48:04;99643.00;;;20.36;93.90
71195;BME280;58908;51.426;7.714;2023-07-20T09:50:31;99627.09;;;21.05;93.05
71195;BME280;58908;51.426;7.714;2023-07-20T09:52:57;99685.16;;;19.35;100.00
71195;BME280;58908;51.426;7.714;2023-07-20T09:55:25;99652.41;;;20.23;96.85
71195;BME280;58908;51.426;7.714;2023-07-20T09:57:52;99642.91;;;21.16;95.60
71195;BME280;58908;51.426;7.714;2023-07-20T10:00:20;99599.06;;;21.58;86.29
71195;BME280;58908;51.426;7.714;2023-07-20T10:02:47;99591.44;;;22.28;83.52
71195;BME280;58908;51.426;7.714;2023-07-20T10:05:17;99583.56;;;22.35;81.69
71195;BME280;58908;51.426;7.714;2023-07-20T10:07:44;99592.69;;;22.42;82.07
71195;BME280;58908;51.426;7.714;2023-07-20T10:10:13;99570.81;;;23.79;79.92
71195;BME280;58908;51.426;7.714;2023-07-20T10:12:40;99581.25;;;22.80;77.62
71195;BME280;58908;51.426;7.714;2023-07-20T10:15:10;99624.44;;;21.97;83.34
71195;BME280;58908;51.426;7.714;2023-07-20T10:17:37;99603.13;;;21.96;81.40
71195;BME280;58908;51.426;7.714;2023-07-20T10:20:06;99649.00;;;20.65;88.84
71195;BME280;58908;51.426;7.714;2023-07-20T10:22:35;99607.56;;;21.20;83.09
71195;BME280;58908;51.426;7.714;2023-07-20T10:25:01;99562.69;;;20.62;74.49
71195;BME280;58908;51.426;7.714;2023-07-20T10:27:30;99567.28;;;19.72;74.23
71195;BME280;58908;51.426;7.714;2023-07-20T10:29:56;99557.94;;;21.91;73.90
71195;BME280;58908;51.426;7.714;2023-07-20T10:32:24;99572.81;;;20.68;74.47
71195;BME280;58908;51.426;7.714;2023-07-20T10:34:51;99580.75;;;20.60;76.11
71195;BME280;58908;51.426;7.714;2023-07-20T10:40:00;99571.00;;;22.51;75.88
71195;BME280;58908;51.426;7.714;2023-07-20T10:42:47;99508.25;;;23.61;68.58
71195;BME280;58908;51.426;7.714;2023-07-20T10:45:13;99546.66;;;21.80;71.28
71195;BME280;58908;51.426;7.714;2023-07-20T10:47:44;99577.28;;;21.61;76.41
71195;BME280;58908;51.426;7.714;2023-07-20T10:50:11;99617.50;;;20.67;80.65
71195;BME280;58908;51.426;7.714;2023-07-20T10:52:38;99616.84;;;20.03;80.95
71195;BME280;58908;51.426;7.714;2023-07-20T10:55:16;99609.84;;;19.30;80.80
71195;BME280;58908;51.426;7.714;2023-07-20T10:57:42;99596.59;;;19.91;78.77
71195;BME280;58908;51.426;7.714;2023-07-20T11:00:09;99564.28;;;20.90;74.62
71195;BME280;58908;51.426;7.714;2023-07-20T11:02:41;99533.75;;;21.50;70.14
71195;BME280;58908;51.426;7.714;2023-07-20T11:05:07;99549.97;;;20.64;71.37
71195;BME280;58908;51.426;7.714;2023-07-20T11:07:54;99544.06;;;21.29;71.18
71195;BME280;58908;51.426;7.714;2023-07-20T11:10:22;99577.19;;;20.77;75.25
71195;BME280;58908;51.426;7.714;2023-07-20T11:15:44;99560.66;;;21.99;72.03
71195;BME280;58908;51.426;7.714;2023-07-20T11:18:11;99506.31;;;22.61;65.47
71195;BME280;58908;51.426;7.714;2023-07-20T11:20:38;99522.41;;;22.21;67.92
71195;BME280;58908;51.426;7.714;2023-07-20T11:23:04;99512.00;;;22.34;67.45
71195;BME280;58908;51.426;7.714;2023-07-20T11:25:37;99532.72;;;21.76;68.54
71195;BME280;58908;51.426;7.714;2023-07-20T11:28:06;99541.56;;;21.27;69.28
71195;BME280;58908;51.426;7.714;2023-07-20T11:30:32;99540.34;;;20.96;70.55
71195;BME280;58908;51.426;7.714;2023-07-20T11:32:59;99556.97;;;20.57;72.17
71195;BME280;58908;51.426;7.714;2023-07-20T11:35:25;99554.03;;;21.11;72.93
71195;BME280;58908;51.426;7.714;2023-07-20T11:37:51;99550.63;;;20.40;72.28
71195;BME280;58908;51.426;7.714;2023-07-20T11:40:18;99545.66;;;20.88;72.08
71195;BME280;58908;51.426;7.714;2023-07-20T11:42:45;99504.09;;;20.49;66.13
71195;BME280;58908;51.426;7.714;2023-07-20T11:45:12;99509.72;;;20.56;66.98
71195;BME280;58908;51.426;7.714;2023-07-20T11:47:39;99518.97;;;20.61;67.17
71195;BME280;58908;51.426;7.714;2023-07-20T11:50:07;99508.19;;;21.71;66.60
71195;BME280;58908;51.426;7.714;2023-07-20T11:52:33;99511.72;;;21.72;67.46
71195;BME280;58908;51.426;7.714;2023-07-20T11:55:01;99495.91;;;20.94;63.93
71195;BME280;58908;51.426;7.714;2023-07-20T11:57:27;99506.16;;;21.24;66.39
71195;BME280;58908;51.426;7.714;2023-07-20T11:59:55;99506.28;;;20.89;65.26
71195;BME280;58908;51.426;7.714;2023-07-20T12:02:22;99509.38;;;21.02;66.55
71195;BME280;58908;51.426;7.714;2023-07-20T12:04:49;99515.91;;;20.99;66.36
71195;BME280;58908;51.426;7.714;2023-07-20T12:07:17;99487.94;;;21.10;64.04
71195;BME280;58908;51.426;7.714;2023-07-20T12:09:44;99511.41;;;21.41;66.48
71195;BME280;58908;51.426;7.714;2023-07-20T12:12:11;99486.56;;;21.31;62.79
71195;BME280;58908;51.426;7.714;2023-07-20T12:14:38;99492.25;;;21.28;63.63
71195;BME280;58908;51.426;7.714;2023-07-20T12:17:07;99508.97;;;20.71;65.52
71195;BME280;58908;51.426;7.714;2023-07-20T12:19:37;99525.88;;;20.89;67.63
71195;BME280;58908;51.426;7.714;2023-07-20T12:22:04;99508.41;;;20.42;65.11
71195;BME280;58908;51.426;7.714;2023-07-20T12:24:30;99513.84;;;20.76;65.46
71195;BME280;58908;51.426;7.714;2023-07-20T12:26:57;99510.25;;;21.10;64.62
71195;BME280;58908;51.426;7.714;2023-07-20T12:29:24;99491.63;;;21.09;63.95
71195;BME280;58908;51.426;7.714;2023-07-20T12:31:51;99504.38;;;21.48;64.93
71195;BME280;58908;51.426;7.714;2023-07-20T12:34:19;99494.31;;;21.42;64.99
71195;BME280;58908;51.426;7.714;2023-07-20T12:36:45;99493.50;;;21.99;65.07
71195;BME280;58908;51.426;7.714;2023-07-20T12:39:11;99483.09;;;21.47;64.53
71195;BME280;58908;51.426;7.714;2023-07-20T12:41:37;99533.44;;;21.19;68.92
71195;BME280;58908;51.426;7.714;2023-07-20T12:44:04;99493.34;;;21.59;63.69
71195;BME280;58908;51.426;7.714;2023-07-20T12:46:30;99481.72;;;21.35;63.26
71195;BME280;58908;51.426;7.714;2023-07-20T12:49:00;99502.13;;;21.28;65.43
71195;BME280;58908;51.426;7.714;2023-07-20T12:51:27;99485.88;;;21.71;64.76
71195;BME280;58908;51.426;7.714;2023-07-20T12:53:54;99460.25;;;21.84;61.75
71195;BME280;58908;51.426;7.714;2023-07-20T12:56:20;99471.09;;;21.25;63.11
71195;BME280;58908;51.426;7.714;2023-07-20T12:58:46;99479.41;;;21.06;64.57